Time;durP1;ratioP1;P1;durP2;ratioP2;P2;SDS_P1;SDS_P2;PMS_P1;PMS_P2;Temp;Humidity;BMP_temperature;BMP_pressure;BME280_temperature;BME280_humidity;BME280_pressure;Samples;Min_cycle;Max_cycle;Signal;HPM_P1;HPM_P2
2022/08/29 00:01:20;;;;;;;10.20;7.20;;;;;;;29.24;39.77;100592.55;104755;1305;62116;-83
2022/08/29 00:03:45;;;;;;;10.00;7.20;;;;;;;29.24;39.74;100589.64;104827;1305;62104;-84
2022/08/29 00:06:11;;;;;;;11.10;7.30;;;;;;;29.24;39.63;100590.38;104795;1305;62092;-83
2022/08/29 00:08:37;;;;;;;11.70;7.70;;;;;;;29.24;39.72;100592.73;104636;1305;75491;-82
2022/08/29 00:11:05;;;;;;;10.80;7.00;;;;;;;29.24;39.62;100590.41;104756;1305;62170;-83
2022/08/29 00:13:31;;;;;;;11.10;7.30;;;;;;;29.23;39.58;100590.78;104653;1305;63098;-83
2022/08/29 00:15:56;;;;;;;11.00;6.90;;;;;;;29.23;39.56;100585.96;104732;1305;63345;-82
2022/08/29 00:18:22;;;;;;;10.80;7.00;;;;;;;29.23;39.76;100588.85;104815;1305;62112;-84
2022/08/29 00:20:47;;;;;;;11.00;7.10;;;;;;;29.23;39.93;100586.64;104626;1305;62108;-83
2022/08/29 00:23:13;;;;;;;10.20;7.30;;;;;;;29.23;39.78;100581.61;104622;1305;62083;-83
2022/08/29 00:25:39;;;;;;;11.10;7.40;;;;;;;29.23;39.81;100580.39;104552;1305;62119;-82
2022/08/29 00:28:04;;;;;;;10.80;7.10;;;;;;;29.23;39.78;100579.64;104608;1305;62184;-81
2022/08/29 00:30:31;;;;;;;10.90;7.20;;;;;;;29.23;39.69;100576.00;104748;1305;62107;-83
2022/08/29 00:32:56;;;;;;;10.40;7.10;;;;;;;29.23;39.56;100575.84;104707;1305;62185;-84
2022/08/29 00:35:25;;;;;;;11.20;6.50;;;;;;;29.23;39.83;100576.55;104767;1305;62139;-83
2022/08/29 00:37:51;;;;;;;10.90;7.00;;;;;;;29.22;39.80;100582.94;104765;1305;72642;-83
2022/08/29 00:40:19;;;;;;;10.00;6.50;;;;;;;29.22;39.82;100579.88;104607;1305;61989;-83
2022/08/29 00:42:45;;;;;;;10.70;7.10;;;;;;;29.22;39.53;100581.85;104515;1304;62132;-82
2022/08/29 00:45:11;;;;;;;12.00;7.20;;;;;;;29.22;39.57;100583.88;104780;1305;62215;-83
2022/08/29 00:47:39;;;;;;;9.70;6.60;;;;;;;29.22;39.72;100581.76;104745;1305;62182;-82
2022/08/29 00:50:07;;;;;;;10.80;6.60;;;;;;;29.22;39.61;100581.56;104754;1305;75536;-82
2022/08/29 00:52:38;;;;;;;12.40;7.30;;;;;;;29.22;39.67;100581.74;104769;1305;62168;-81
2022/08/29 00:55:09;;;;;;;10.00;6.90;;;;;;;29.22;39.65;100580.48;104663;1305;62108;-80
2022/08/29 00:57:35;;;;;;;10.00;6.90;;;;;;;29.22;39.73;100579.41;104643;1305;72733;-81
2022/08/29 01:00:01;;;;;;;7.90;6.20;;;;;;;29.22;39.72;100581.74;104627;1305;62202;-84
2022/08/29 01:02:27;;;;;;;9.80;6.90;;;;;;;29.21;39.59;100586.84;104862;1305;62084;-83
2022/08/29 01:04:53;;;;;;;11.20;7.00;;;;;;;29.22;39.60;100586.30;104664;1305;62110;-84
2022/08/29 01:07:19;;;;;;;10.80;6.80;;;;;;;29.21;39.84;100586.68;104593;1305;62082;-83
2022/08/29 01:09:45;;;;;;;11.30;7.00;;;;;;;29.22;39.66;100586.47;104523;1305;62111;-82
2022/08/29 01:12:14;;;;;;;9.80;6.60;;;;;;;29.22;39.65;100584.13;104702;1305;62198;-82
2022/08/29 01:14:52;;;;;;;10.40;6.40;;;;;;;29.21;39.75;100581.40;104645;1305;63440;-82
2022/08/29 01:17:27;;;;;;;11.10;7.00;;;;;;;29.21;39.62;100579.27;104680;1305;72726;-82
2022/08/29 01:20:33;;;;;;;10.80;6.80;;;;;;;29.21;39.65;100579.63;104774;1305;75487;-82
2022/08/29 01:23:14;;;;;;;10.00;6.60;;;;;;;29.21;39.67;100581.67;104690;1305;62107;-82
2022/08/29 01:25:44;;;;;;;10.40;6.20;;;;;;;29.21;39.72;100578.79;104660;1305;62087;-82
2022/08/29 01:28:26;;;;;;;12.50;7.00;;;;;;;29.21;39.63;100580.38;104683;1305;72143;-84
2022/08/29 01:31:21;;;;;;;10.70;6.70;;;;;;;29.21;39.65;100579.88;104738;1305;76601;-84
2022/08/29 01:33:48;;;;;;;8.90;6.20;;;;;;;29.20;39.83;100578.33;104809;1305;62105;-82
2022/08/29 01:36:22;;;;;;;11.60;6.30;;;;;;;29.20;39.72;100579.70;104656;1305;62472;-82
2022/08/29 01:38:48;;;;;;;11.60;6.60;;;;;;;29.21;39.65;100578.07;104654;1305;73881;-83
2022/08/29 01:41:14;;;;;;;8.10;6.10;;;;;;;29.21;39.70;100578.75;104538;1305;62116;-83
2022/08/29 01:43:42;;;;;;;9.20;6.00;;;;;;;29.20;39.74;100577.15;104645;1305;60944;-83
2022/08/29 01:46:09;;;;;;;9.80;6.80;;;;;;;29.20;39.53;100578.14;104767;1304;62002;-82
2022/08/29 01:48:37;;;;;;;10.50;6.40;;;;;;;29.20;39.69;100576.52;104535;1305;74342;-82
2022/08/29 01:51:03;;;;;;;10.30;7.20;;;;;;;29.20;39.67;100575.59;104685;1305;75615;-83
2022/08/29 01:53:29;;;;;;;9.20;6.80;;;;;;;29.20;39.71;100576.71;104765;1305;62056;-85
2022/08/29 01:55:54;;;;;;;9.70;6.50;;;;;;;29.20;39.98;100580.14;104758;1305;62152;-82
2022/08/29 01:58:20;;;;;;;10.50;6.40;;;;;;;29.20;39.56;100577.80;104624;1305;62110;-82
2022/08/29 02:00:46;;;;;;;8.90;6.00;;;;;;;29.20;39.66;100576.55;104838;1305;62097;-83
2022/08/29 02:03:11;;;;;;;10.80;5.90;;;;;;;29.20;39.74;100577.45;104791;1305;63279;-82
2022/08/29 02:05:38;;;;;;;8.60;5.90;;;;;;;29.20;39.81;100576.73;104698;1305;62093;-84
2022/08/29 02:08:04;;;;;;;9.80;6.40;;;;;;;29.19;39.94;100574.95;104859;1305;62104;-82
2022/08/29 02:10:29;;;;;;;10.50;6.20;;;;;;;29.19;39.67;100579.29;104687;1305;62344;-82
2022/08/29 02:12:56;;;;;;;8.20;6.50;;;;;;;29.20;39.78;100581.02;104516;1305;62132;-84
2022/08/29 02:15:22;;;;;;;9.00;6.20;;;;;;;29.20;39.78;100581.79;104794;1305;62068;-84
2022/08/29 02:17:47;;;;;;;8.70;6.10;;;;;;;29.19;39.85;100582.42;104809;1305;62137;-83
2022/08/29 02:20:13;;;;;;;9.00;6.20;;;;;;;29.19;39.94;100581.51;104601;1305;62117;-83
2022/08/29 02:22:39;;;;;;;8.70;6.40;;;;;;;29.19;39.77;100584.77;104851;1305;62057;-82
2022/08/29 02:25:40;;;;;;;8.90;6.10;;;;;;;29.19;39.97;100584.44;104852;1305;75456;-82
2022/08/29 02:27:51;;;;;;;10.00;6.50;;;;;;;29.19;40.01;100590.73;104800;1305;62923;-82
2022/08/29 02:30:18;;;;;;;9.70;5.80;;;;;;;29.19;39.84;100588.98;104797;1305;62177;-83
2022/08/29 02:32:44;;;;;;;9.60;5.80;;;;;;;29.18;39.74;100588.27;104536;1305;72779;-84
2022/08/29 02:35:09;;;;;;;9.30;6.10;;;;;;;29.18;39.94;100588.27;104621;1305;62233;-84
2022/08/29 02:37:35;;;;;;;8.20;6.00;;;;;;;29.18;39.75;100587.20;104767;1305;62103;-84
2022/08/29 02:40:02;;;;;;;10.10;6.60;;;;;;;29.18;39.68;100590.13;104673;1305;62103;-83
2022/08/29 02:42:28;;;;;;;10.50;6.40;;;;;;;29.18;40.05;100595.91;104650;1305;62184;-84
2022/08/29 02:44:53;;;;;;;7.80;6.30;;;;;;;29.17;39.77;100593.63;104786;1305;62176;-84
2022/08/29 02:47:19;;;;;;;8.40;5.40;;;;;;;29.18;40.05;100601.34;104697;1305;62100;-83
2022/08/29 02:49:44;;;;;;;8.30;5.30;;;;;;;29.18;40.07;100600.30;104825;1305;62094;-83
2022/08/29 02:52:10;;;;;;;9.30;6.00;;;;;;;29.18;40.06;100596.32;104655;1306;62121;-81
2022/08/29 02:54:36;;;;;;;9.50;5.60;;;;;;;29.18;39.93;100598.70;104702;1305;62022;-82
2022/08/29 02:57:03;;;;;;;7.90;5.50;;;;;;;29.18;39.85;100600.49;104826;1305;62228;-82
2022/08/29 02:59:28;;;;;;;9.30;6.10;;;;;;;29.18;39.78;100599.77;104720;1305;62088;-84
2022/08/29 03:01:54;;;;;;;10.80;6.10;;;;;;;29.17;39.74;100604.88;104674;1305;62670;-84
2022/08/29 03:04:20;;;;;;;9.40;6.30;;;;;;;29.17;40.24;100608.14;104833;1305;62084;-83
2022/08/29 03:06:45;;;;;;;9.50;5.90;;;;;;;29.17;39.70;100610.14;103410;1306;1754647;-83
2022/08/29 03:09:11;;;;;;;8.20;5.80;;;;;;;29.17;39.92;100612.15;104760;1305;62219;-83
2022/08/29 03:11:36;;;;;;;8.10;6.10;;;;;;;29.18;39.82;100611.02;104638;1305;62078;-83
2022/08/29 03:14:02;;;;;;;7.90;5.80;;;;;;;29.17;39.82;100614.91;104761;1305;63302;-83
2022/08/29 03:16:28;;;;;;;8.70;5.70;;;;;;;29.17;39.99;100616.52;104860;1305;62184;-84
2022/08/29 03:18:53;;;;;;;9.70;6.00;;;;;;;29.17;40.02;100618.02;104874;1305;62181;-82
2022/08/29 03:21:22;;;;;;;11.00;6.40;;;;;;;29.17;40.09;100620.38;104771;1305;74826;-82
2022/08/29 03:23:48;;;;;;;8.80;5.80;;;;;;;29.17;39.87;100621.46;104801;1305;62133;-82
2022/08/29 03:26:14;;;;;;;8.00;5.50;;;;;;;29.16;39.87;100622.41;104790;1304;62102;-83
2022/08/29 03:28:40;;;;;;;8.20;5.60;;;;;;;29.16;39.82;100630.05;104825;1305;62070;-83
2022/08/29 03:31:05;;;;;;;10.60;5.90;;;;;;;29.16;39.94;100631.48;104643;1305;62214;-84
2022/08/29 03:33:31;;;;;;;9.70;5.70;;;;;;;29.16;39.94;100634.70;104696;1305;62211;-81
2022/08/29 03:35:56;;;;;;;7.70;5.40;;;;;;;29.16;39.86;100636.91;104683;1305;62177;-82
2022/08/29 03:38:22;;;;;;;9.40;5.70;;;;;;;29.16;39.90;100640.00;104882;1305;62222;-79
2022/08/29 03:40:48;;;;;;;8.40;5.80;;;;;;;29.16;40.05;100645.29;104604;1305;62139;-83
2022/08/29 03:43:14;;;;;;;10.80;5.60;;;;;;;29.15;39.78;100651.73;104660;1305;62274;-81
2022/08/29 03:45:39;;;;;;;9.30;6.00;;;;;;;29.13;39.97;100652.67;104629;1305;62126;-83
2022/08/29 03:48:05;;;;;;;12.10;5.30;;;;;;;29.11;39.70;100653.89;104663;1305;62110;-84
2022/08/29 03:50:31;;;;;;;7.80;5.10;;;;;;;29.11;39.53;100660.11;104681;1305;62121;-83
2022/08/29 03:52:56;;;;;;;9.60;5.70;;;;;;;29.10;39.50;100662.94;104668;1305;62191;-84
2022/08/29 03:55:22;;;;;;;9.70;5.80;;;;;;;29.09;39.41;100669.16;104664;1305;75617;-81
2022/08/29 03:57:48;;;;;;;9.70;5.70;;;;;;;29.08;39.20;100670.16;104609;1307;62082;-81
2022/08/29 04:00:15;;;;;;;9.10;5.40;;;;;;;29.08;39.21;100676.52;104667;1305;63264;-83
2022/08/29 04:02:42;;;;;;;13.70;5.60;;;;;;;29.08;39.14;100673.33;104543;1305;62169;-83
2022/08/29 04:05:08;;;;;;;10.00;5.40;;;;;;;29.07;39.04;100677.57;104629;1305;75445;-82
2022/08/29 04:07:44;;;;;;;9.60;5.20;;;;;;;29.07;39.13;100682.70;104793;1305;62079;-84
2022/08/29 04:10:11;;;;;;;10.60;5.10;;;;;;;29.06;39.03;100683.71;104687;1305;61966;-83
2022/08/29 04:12:37;;;;;;;12.40;5.40;;;;;;;29.05;38.91;100689.34;104690;1305;72638;-81
2022/08/29 04:15:04;;;;;;;10.30;5.10;;;;;;;29.05;38.83;100695.16;104674;1305;75573;-82
2022/08/29 04:17:31;;;;;;;12.20;6.20;;;;;;;29.05;38.84;100699.20;104633;1305;61966;-85
2022/08/29 04:19:56;;;;;;;11.50;5.90;;;;;;;29.05;38.44;100697.73;104782;1305;62165;-81
2022/08/29 04:22:22;;;;;;;10.80;5.50;;;;;;;29.05;38.52;100698.45;104648;1305;62159;-82
2022/08/29 04:24:48;;;;;;;10.90;5.60;;;;;;;29.04;38.52;100703.95;104650;1306;62187;-83
2022/08/29 04:27:14;;;;;;;10.50;5.10;;;;;;;29.04;38.50;100707.98;104782;1305;62292;-82
2022/08/29 04:29:39;;;;;;;10.40;5.30;;;;;;;29.04;38.36;100708.88;104647;1305;62112;-81
2022/08/29 04:32:05;;;;;;;12.30;5.10;;;;;;;29.04;38.38;100712.17;104673;1305;63252;-83
2022/08/29 04:34:31;;;;;;;9.00;4.80;;;;;;;29.03;38.33;100710.40;104780;1305;73818;-84
2022/08/29 04:36:58;;;;;;;13.70;5.40;;;;;;;29.03;38.12;100713.66;104764;1305;62206;-83
2022/08/29 04:39:24;;;;;;;11.80;5.20;;;;;;;29.03;38.25;100713.86;104699;1305;61971;-82
2022/08/29 04:41:50;;;;;;;9.30;5.30;;;;;;;29.03;38.20;100713.19;104804;1305;62062;-80
2022/08/29 04:44:15;;;;;;;10.30;5.40;;;;;;;29.02;37.83;100715.06;104810;1303;62119;-83
2022/08/29 04:46:41;;;;;;;10.10;5.30;;;;;;;29.02;37.82;100717.80;104882;1305;62213;-83
2022/08/29 04:49:07;;;;;;;12.20;5.40;;;;;;;29.01;37.89;100714.60;104665;1305;62119;-83
2022/08/29 04:51:33;;;;;;;11.90;6.30;;;;;;;29.01;37.85;100720.58;104672;1305;62072;-82
2022/08/29 04:53:59;;;;;;;9.00;5.10;;;;;;;29.01;37.76;100721.88;104544;1305;62164;-82
2022/08/29 04:56:24;;;;;;;11.00;5.10;;;;;;;29.00;37.89;100722.31;104716;1305;62201;-82
2022/08/29 04:58:50;;;;;;;10.20;5.20;;;;;;;29.00;37.75;100726.69;104644;1305;62102;-82
2022/08/29 05:01:20;;;;;;;10.10;5.30;;;;;;;29.00;37.72;100733.36;104665;1305;62685;-82
2022/08/29 05:03:47;;;;;;;12.30;5.40;;;;;;;29.00;37.65;100732.13;104613;1305;62123;-82
2022/08/29 05:06:14;;;;;;;11.40;5.10;;;;;;;29.00;37.94;100727.05;104738;1304;61975;-82
2022/08/29 05:08:40;;;;;;;9.80;5.00;;;;;;;29.00;37.57;100733.79;104749;1305;76617;-82
2022/08/29 05:11:10;;;;;;;10.60;5.10;;;;;;;29.00;37.67;100733.45;104685;1305;62833;-89
2022/08/29 05:13:35;;;;;;;10.40;4.90;;;;;;;28.99;37.69;100732.02;104644;1305;61926;-83
2022/08/29 05:16:05;;;;;;;10.60;5.80;;;;;;;28.99;37.35;100733.34;104450;1305;62108;-83
2022/08/29 05:18:31;;;;;;;17.40;5.20;;;;;;;28.98;37.31;100732.46;104334;1305;75408;-81
2022/08/29 05:20:56;;;;;;;13.50;5.40;;;;;;;28.98;37.40;100731.81;104627;1305;62114;-81
2022/08/29 05:23:22;;;;;;;14.80;5.50;;;;;;;28.99;37.20;100734.80;104457;1305;62123;-83
2022/08/29 05:25:54;;;;;;;11.60;5.50;;;;;;;28.99;37.13;100737.52;104392;1305;62783;-81
2022/08/29 05:28:20;;;;;;;12.10;5.10;;;;;;;28.99;37.22;100737.19;104480;1305;75818;-81
2022/08/29 05:30:45;;;;;;;9.30;5.20;;;;;;;28.99;36.95;100736.23;104653;1305;62087;-82
2022/08/29 05:33:11;;;;;;;11.80;4.80;;;;;;;28.99;37.23;100736.23;104557;1303;62055;-82
2022/08/29 05:35:37;;;;;;;10.50;4.90;;;;;;;29.00;37.05;100736.33;104341;1307;60224;-83
2022/08/29 05:38:03;;;;;;;11.90;5.10;;;;;;;29.01;37.16;100734.78;104578;1305;63788;-81
2022/08/29 05:40:28;;;;;;;13.00;5.00;;;;;;;29.01;36.96;100735.79;104559;1305;61404;-82
2022/08/29 05:42:54;;;;;;;11.60;4.90;;;;;;;29.01;36.95;100732.38;104375;1305;61993;-83
2022/08/29 05:45:19;;;;;;;14.70;4.70;;;;;;;29.02;36.94;100731.25;104375;1305;62474;-82
2022/08/29 05:47:45;;;;;;;12.90;5.30;;;;;;;29.03;36.84;100732.58;104411;1305;62204;-82
2022/08/29 05:50:12;;;;;;;13.60;5.20;;;;;;;29.03;36.83;100731.29;104621;1305;60080;-81
2022/08/29 05:52:39;;;;;;;12.00;5.20;;;;;;;29.04;36.64;100732.63;104379;1305;62288;-82
2022/08/29 05:55:05;;;;;;;12.70;5.20;;;;;;;29.04;36.85;100732.92;104590;1305;60320;-82
2022/08/29 05:57:30;;;;;;;10.10;5.00;;;;;;;29.04;36.78;100735.28;104353;1305;62001;-82
2022/08/29 05:59:56;;;;;;;11.80;5.00;;;;;;;29.05;36.82;100733.91;104194;1305;62127;-82
2022/08/29 06:02:22;;;;;;;11.90;5.00;;;;;;;29.06;36.67;100731.49;104773;1305;62111;-81
2022/08/29 06:04:48;;;;;;;8.50;4.90;;;;;;;29.07;36.69;100733.55;104303;1305;61939;-82
2022/08/29 06:07:13;;;;;;;12.10;4.90;;;;;;;29.07;36.63;100730.43;104276;1305;62147;-81
2022/08/29 06:09:40;;;;;;;17.30;5.50;;;;;;;29.08;36.71;100735.21;104306;1307;62534;-82
2022/08/29 06:12:06;;;;;;;12.00;5.00;;;;;;;29.09;36.69;100732.10;104408;1305;62223;-85
2022/08/29 06:14:32;;;;;;;10.80;5.30;;;;;;;29.10;36.68;100730.91;104569;1305;62099;-82
2022/08/29 06:16:58;;;;;;;11.70;5.20;;;;;;;29.10;36.69;100732.30;104383;1305;62103;-82
2022/08/29 06:19:24;;;;;;;14.50;5.10;;;;;;;29.10;36.71;100732.47;104414;1305;62005;-82
2022/08/29 06:21:49;;;;;;;12.40;5.10;;;;;;;29.11;36.58;100734.07;104733;1305;62204;-81
2022/08/29 06:24:16;;;;;;;9.00;4.50;;;;;;;29.11;36.66;100735.46;104513;1305;77777;-83
2022/08/29 06:26:43;;;;;;;14.40;5.50;;;;;;;29.12;36.64;100735.44;104688;1305;62133;-83
2022/08/29 06:29:09;;;;;;;10.10;5.20;;;;;;;29.11;36.77;100732.95;104587;1305;61937;-84
2022/08/29 06:31:35;;;;;;;11.00;4.90;;;;;;;29.11;36.72;100731.83;104329;1305;62198;-83
2022/08/29 06:34:04;;;;;;;9.50;4.80;;;;;;;29.12;36.71;100731.21;104503;1305;62100;-82
2022/08/29 06:36:30;;;;;;;13.90;5.00;;;;;;;29.12;36.78;100729.01;104554;1306;61984;-83
2022/08/29 06:39:00;;;;;;;9.10;5.00;;;;;;;29.13;36.80;100731.63;104640;1305;62066;-84
2022/08/29 06:41:25;;;;;;;10.40;5.00;;;;;;;29.14;36.58;100731.52;104444;1305;73160;-84
2022/08/29 06:43:53;;;;;;;10.60;4.90;;;;;;;29.15;36.80;100737.98;104417;1305;62392;-83
2022/08/29 06:46:30;;;;;;;10.80;4.80;;;;;;;29.16;36.77;100738.58;104344;1307;62024;-83
2022/08/29 06:48:56;;;;;;;9.60;4.70;;;;;;;29.17;36.96;100741.16;104380;1305;62219;-83
2022/08/29 06:51:23;;;;;;;10.30;5.20;;;;;;;29.19;36.61;100739.77;104415;1305;63144;-83
2022/08/29 06:53:49;;;;;;;9.90;4.70;;;;;;;29.19;36.65;100743.30;104223;1305;64270;-84
2022/08/29 06:56:14;;;;;;;10.60;5.00;;;;;;;29.20;36.83;100741.73;104639;1305;62143;-81
2022/08/29 06:58:40;;;;;;;10.10;5.00;;;;;;;29.21;36.70;100742.02;104466;1305;62135;-82
2022/08/29 07:01:08;;;;;;;9.50;5.10;;;;;;;29.22;36.73;100742.98;104222;1305;61972;-82
2022/08/29 07:03:33;;;;;;;6.70;4.40;;;;;;;29.23;36.54;100743.11;104417;1305;62922;-83
2022/08/29 07:06:00;;;;;;;11.90;5.10;;;;;;;29.23;36.61;100745.39;104334;1305;62264;-83
2022/08/29 07:08:26;;;;;;;14.10;4.90;;;;;;;29.24;36.77;100747.09;104261;1305;62130;-82
2022/08/29 07:10:52;;;;;;;12.00;5.20;;;;;;;29.24;36.59;100749.31;104616;1305;61994;-82
2022/08/29 07:13:17;;;;;;;11.90;5.10;;;;;;;29.25;36.75;100748.33;104654;1305;62104;-82
2022/08/29 07:15:43;;;;;;;7.80;4.50;;;;;;;29.25;36.53;100745.77;104463;1305;62168;-83
2022/08/29 07:18:09;;;;;;;13.00;5.20;;;;;;;29.26;36.75;100746.80;104335;1304;62275;-82
2022/08/29 07:20:36;;;;;;;12.60;5.00;;;;;;;29.26;36.68;100746.06;104460;1305;62093;-83
2022/08/29 07:23:03;;;;;;;9.90;5.20;;;;;;;29.26;36.60;100747.80;104635;1305;73806;-82
2022/08/29 07:25:28;;;;;;;10.20;4.60;;;;;;;29.27;36.53;100747.61;104345;1304;62120;-82
2022/08/29 07:27:54;;;;;;;10.90;5.40;;;;;;;29.27;36.48;100749.57;104355;1305;62191;-83
2022/08/29 07:30:20;;;;;;;15.60;4.90;;;;;;;29.26;36.54;100752.54;104157;1305;62142;-83
2022/08/29 07:32:45;;;;;;;9.10;4.60;;;;;;;29.26;36.52;100750.02;104201;1306;62172;-82
2022/08/29 07:35:12;;;;;;;9.70;4.80;;;;;;;29.26;36.57;100749.80;104299;1305;62223;-83
2022/08/29 07:37:38;;;;;;;10.30;5.00;;;;;;;29.28;36.43;100752.20;103895;1308;75567;-83
2022/08/29 07:40:06;;;;;;;11.10;4.70;;;;;;;29.30;36.43;100753.66;103974;1305;62000;-83
2022/08/29 07:42:33;;;;;;;9.40;4.60;;;;;;;29.31;36.41;100754.42;104185;1305;61923;-82
2022/08/29 07:44:58;;;;;;;12.00;5.00;;;;;;;29.32;36.60;100750.34;104126;1306;74175;-83
2022/08/29 07:47:25;;;;;;;15.20;4.60;;;;;;;29.33;36.50;100754.92;104253;1305;62244;-83
2022/08/29 07:49:51;;;;;;;10.80;5.00;;;;;;;29.34;36.54;100751.54;104327;1305;61993;-83
2022/08/29 07:52:18;;;;;;;12.40;4.70;;;;;;;29.35;36.54;100746.95;104370;1304;62050;-83
2022/08/29 07:54:44;;;;;;;13.70;4.80;;;;;;;29.35;36.47;100747.60;105530;1305;60406;-83
2022/08/29 07:57:10;;;;;;;10.60;5.10;;;;;;;29.35;36.54;100747.40;105353;1305;60265;-83
2022/08/29 07:59:36;;;;;;;12.20;5.10;;;;;;;29.37;36.54;100745.98;104130;1305;62482;-83
2022/08/29 08:02:02;;;;;;;7.80;4.90;;;;;;;29.38;36.51;100744.81;104007;1305;62364;-83
2022/08/29 08:04:28;;;;;;;12.40;5.00;;;;;;;29.39;36.41;100743.46;104025;1305;61982;-84
2022/08/29 08:06:54;;;;;;;7.80;4.70;;;;;;;29.39;36.47;100738.31;104093;1305;62110;-83
2022/08/29 08:09:20;;;;;;;11.00;5.20;;;;;;;29.39;36.65;100735.36;103990;1305;62178;-83
2022/08/29 08:11:46;;;;;;;8.50;4.70;;;;;;;29.40;36.52;100732.92;104457;1305;62106;-84
2022/08/29 08:14:12;;;;;;;10.10;4.60;;;;;;;29.40;36.30;100726.91;104007;1305;62691;-83
2022/08/29 08:16:38;;;;;;;10.40;4.70;;;;;;;29.41;36.30;100726.30;103863;1306;62111;-83
2022/08/29 08:19:04;;;;;;;10.30;4.70;;;;;;;29.42;36.36;100723.81;103981;1306;62134;-82
2022/08/29 08:21:30;;;;;;;10.70;5.40;;;;;;;29.42;36.42;100723.81;104091;1306;62875;-83
2022/08/29 08:23:56;;;;;;;11.30;5.00;;;;;;;29.43;36.31;100723.00;104070;1306;62233;-82
2022/08/29 08:26:23;;;;;;;7.70;4.90;;;;;;;29.44;36.28;100723.45;103826;1305;62089;-84
2022/08/29 08:28:48;;;;;;;10.30;4.70;;;;;;;29.45;36.27;100719.61;103803;1305;62207;-83
2022/08/29 08:31:44;;;;;;;11.50;5.00;;;;;;;29.45;36.44;100722.23;103823;1305;62264;-83
2022/08/29 08:34:14;;;;;;;12.40;5.40;;;;;;;29.45;36.47;100726.02;103518;1312;62075;-83
2022/08/29 08:36:41;;;;;;;9.50;4.60;;;;;;;29.46;36.14;100726.88;103495;1314;73992;-82
2022/08/29 08:39:07;;;;;;;14.50;5.20;;;;;;;29.47;36.33;100727.33;103698;1313;76639;-82
2022/08/29 08:42:07;;;;;;;13.20;5.80;;;;;;;29.47;36.40;100724.75;103543;1313;62907;-83
2022/08/29 08:44:48;;;;;;;14.10;4.90;;;;;;;29.47;35.95;100726.95;104344;1319;60420;-82
2022/08/29 08:47:14;;;;;;;12.00;5.00;;;;;;;29.48;36.08;100727.27;103595;1318;64339;-82
2022/08/29 08:49:46;;;;;;;10.30;4.60;;;;;;;29.48;36.29;100723.22;102759;1320;75685;-82
2022/08/29 08:52:21;;;;;;;10.70;5.10;;;;;;;29.49;36.14;100720.16;104407;1319;60558;-82
2022/08/29 08:54:52;;;;;;;12.90;5.00;;;;;;;29.50;36.19;100723.98;103746;1319;61247;-82
2022/08/29 08:57:18;;;;;;;9.40;4.60;;;;;;;29.51;36.01;100723.10;102851;1319;73029;-82
2022/08/29 08:59:47;;;;;;;12.70;5.00;;;;;;;29.52;36.01;100726.41;102939;1319;76024;-82
2022/08/29 09:02:35;;;;;;;14.00;5.30;;;;;;;29.52;35.97;100727.60;102940;1319;62333;-83
2022/08/29 09:05:26;;;;;;;10.10;5.10;;;;;;;29.52;35.95;100722.23;103216;1319;62128;-83
2022/08/29 09:08:01;;;;;;;8.90;4.90;;;;;;;29.52;35.96;100720.60;103009;1319;72885;-83
2022/08/29 09:10:51;;;;;;;13.40;5.20;;;;;;;29.52;35.99;100720.23;103214;1317;75661;-83
2022/08/29 09:13:46;;;;;;;12.10;5.10;;;;;;;29.52;35.76;100717.21;104181;1311;62013;-84
2022/08/29 09:16:22;;;;;;;9.10;5.00;;;;;;;29.51;35.79;100713.84;103619;1317;62020;-83
2022/08/29 09:18:48;;;;;;;7.50;4.50;;;;;;;29.50;35.66;100713.88;103296;1317;72839;-83
2022/08/29 09:21:18;;;;;;;9.30;4.90;;;;;;;29.50;35.83;100717.17;103740;1313;60969;-83
2022/08/29 09:23:48;;;;;;;12.70;5.20;;;;;;;29.50;35.76;100713.40;103987;1314;62121;-83
2022/08/29 09:26:15;;;;;;;8.60;5.10;;;;;;;29.49;35.75;100714.73;104015;1313;61943;-83
2022/08/29 09:28:41;;;;;;;12.00;5.30;;;;;;;29.50;35.76;100715.98;103954;1314;75197;-83
2022/08/29 09:31:15;;;;;;;11.30;5.10;;;;;;;29.50;35.76;100714.11;103978;1314;62342;-83
2022/08/29 09:33:53;;;;;;;9.40;4.90;;;;;;;29.49;35.63;100714.25;104070;1313;62098;-81
2022/08/29 09:36:40;;;;;;;11.10;5.00;;;;;;;29.48;35.67;100710.68;104072;1314;61993;-82
2022/08/29 09:39:29;;;;;;;21.20;6.10;;;;;;;29.48;35.80;100709.23;104194;1313;74035;-81
2022/08/29 09:41:59;;;;;;;14.10;5.20;;;;;;;29.49;35.27;100707.85;104093;1313;76601;-82
2022/08/29 09:44:30;;;;;;;11.40;4.90;;;;;;;29.51;35.35;100706.77;103806;1314;61982;-82
2022/08/29 09:47:34;;;;;;;15.10;5.00;;;;;;;29.56;35.00;100710.38;104002;1313;62086;-81
2022/08/29 09:50:25;;;;;;;14.90;5.30;;;;;;;29.61;34.67;100702.09;102994;1321;72767;-82
2022/08/29 09:52:53;;;;;;;11.80;5.30;;;;;;;29.63;34.50;100704.37;103094;1315;76571;-82
2022/08/29 09:55:33;;;;;;;10.70;4.70;;;;;;;29.63;34.39;100703.08;104049;1313;61966;-85
2022/08/29 09:58:30;;;;;;;11.80;5.00;;;;;;;29.63;34.14;100705.42;103967;1314;62066;-81
2022/08/29 10:01:00;;;;;;;15.30;5.30;;;;;;;29.64;34.34;100700.30;104009;1314;72767;-81
2022/08/29 10:03:26;;;;;;;18.50;5.60;;;;;;;29.67;33.97;100697.02;103917;1313;77807;-82
2022/08/29 10:06:06;;;;;;;14.20;5.00;;;;;;;29.70;33.87;100700.33;104060;1313;60215;-82
2022/08/29 10:08:36;;;;;;;12.30;5.30;;;;;;;29.69;33.88;100695.12;104049;1313;62106;-82
2022/08/29 10:11:05;;;;;;;15.70;4.70;;;;;;;29.69;33.56;100699.92;103915;1313;73684;-82
2022/08/29 10:13:36;;;;;;;10.20;5.20;;;;;;;29.68;33.95;100701.61;104001;1313;75427;-81
2022/08/29 10:16:33;;;;;;;12.10;4.80;;;;;;;29.66;33.77;100699.65;104036;1313;60510;-82
2022/08/29 10:19:02;;;;;;;12.80;4.90;;;;;;;29.64;34.17;100697.50;103831;1313;62198;-82
2022/08/29 10:21:48;;;;;;;9.30;4.40;;;;;;;29.64;34.23;100698.29;104252;1306;74502;-82
2022/08/29 10:24:40;;;;;;;9.70;4.60;;;;;;;29.63;33.96;100694.55;104401;1306;76840;-82
2022/08/29 10:27:23;;;;;;;10.20;4.90;;;;;;;29.62;33.91;100696.14;104538;1306;61989;-81
2022/08/29 10:30:03;;;;;;;13.90;4.90;;;;;;;29.61;34.05;100694.95;104546;1305;62105;-83
2022/08/29 10:32:40;;;;;;;16.40;5.30;;;;;;;29.60;34.43;100693.48;104491;1306;73156;-84
2022/08/29 10:35:21;;;;;;;10.20;5.00;;;;;;;29.58;34.50;100688.21;104607;1305;75496;-83
2022/08/29 10:38:08;;;;;;;8.80;4.80;;;;;;;29.57;34.22;100690.34;104719;1305;61967;-84
2022/08/29 10:40:46;;;;;;;8.10;4.60;;;;;;;29.55;34.15;100691.96;104716;1305;61942;-81
2022/08/29 10:43:15;;;;;;;9.70;4.90;;;;;;;29.54;34.59;100684.81;104717;1305;73871;-83
2022/08/29 10:45:53;;;;;;;10.90;4.80;;;;;;;29.54;34.36;100686.31;104671;1305;76729;-84
2022/08/29 10:48:23;;;;;;;15.30;5.10;;;;;;;29.53;34.24;100682.73;104766;1305;62038;-83
2022/08/29 10:51:07;;;;;;;15.30;5.10;;;;;;;29.53;34.46;100678.29;104454;1306;63087;-82
2022/08/29 10:53:39;;;;;;;12.40;4.70;;;;;;;29.52;34.42;100683.98;104573;1305;74196;-82
2022/08/29 10:56:38;;;;;;;11.00;4.80;;;;;;;29.51;34.00;100677.15;104313;1307;76902;-83
2022/08/29 10:59:17;;;;;;;10.00;4.80;;;;;;;29.50;34.13;100672.37;104585;1305;61974;-82
2022/08/29 11:01:47;;;;;;;11.80;4.80;;;;;;;29.50;34.40;100669.52;104228;1305;62476;-82
2022/08/29 11:04:23;;;;;;;9.00;4.90;;;;;;;29.50;34.25;100669.14;104552;1305;73804;-82
2022/08/29 11:07:15;;;;;;;11.50;4.80;;;;;;;29.51;34.35;100666.70;104687;1305;76433;-81
2022/08/29 11:09:49;;;;;;;10.50;5.00;;;;;;;29.50;34.40;100663.39;104394;1305;62087;-82
2022/08/29 11:12:18;;;;;;;9.60;4.80;;;;;;;29.50;34.13;100663.37;104364;1305;62046;-82
2022/08/29 11:14:59;;;;;;;10.80;4.70;;;;;;;29.50;33.97;100661.86;104431;1305;73830;-82
2022/08/29 11:17:28;;;;;;;13.00;4.60;;;;;;;29.51;34.32;100656.73;104557;1305;75333;-82
2022/08/29 11:20:02;;;;;;;10.60;4.20;;;;;;;29.51;34.25;100658.18;104436;1305;62505;-83
2022/08/29 11:22:44;;;;;;;11.30;5.00;;;;;;;29.51;33.97;100655.61;104417;1305;62241;-83